createdAt,value
2022-11-07T00:00:29.499Z,98.47
2022-11-07T00:01:29.500Z,98.16
2022-11-07T00:02:29.593Z,98.16
2022-11-07T00:03:29.501Z,98.47
2022-11-07T00:04:29.452Z,98.68
2022-11-07T00:05:29.436Z,99.09
2022-11-07T00:06:29.473Z,98.79
2022-11-07T00:07:29.402Z,98.88
2022-11-07T00:08:29.403Z,98.79
2022-11-07T00:09:29.403Z,98.88
2022-11-07T00:10:29.383Z,99.19
2022-11-07T00:11:29.372Z,99.40
2022-11-07T00:12:29.364Z,99.30
2022-11-07T00:13:29.358Z,99.40
2022-11-07T00:14:29.337Z,99.34
2022-11-07T00:15:29.344Z,99.81
2022-11-07T00:16:29.362Z,99.40
2022-11-07T00:17:29.337Z,99.81
2022-11-07T00:18:29.288Z,99.34
2022-11-07T00:19:29.278Z,99.34
2022-11-07T00:20:29.268Z,99.81
2022-11-07T00:21:29.292Z,99.81
2022-11-07T00:22:29.252Z,99.71
2022-11-07T00:23:29.290Z,99.40
2022-11-07T00:24:29.231Z,99.55
2022-11-07T00:25:29.212Z,99.96
2022-11-07T00:26:29.290Z,99.51
2022-11-07T00:27:29.257Z,99.81
2022-11-07T00:28:29.210Z,99.91
2022-11-07T00:29:29.247Z,99.71
2022-11-07T00:30:29.162Z,99.60
2022-11-07T00:31:29.298Z,99.99
2022-11-07T00:32:29.149Z,99.76
2022-11-07T00:33:29.143Z,99.76
2022-11-07T00:34:29.127Z,99.65
2022-11-07T00:35:29.113Z,99.55
2022-11-07T00:36:29.101Z,99.96
2022-11-07T00:37:29.089Z,99.86
2022-11-07T00:38:29.115Z,99.65
2022-11-07T00:39:29.093Z,99.76
2022-11-07T00:40:29.063Z,99.96
2022-11-07T00:41:29.051Z,99.65
2022-11-07T00:42:29.043Z,99.96
2022-11-07T00:43:29.033Z,99.55
2022-11-07T00:44:29.028Z,99.86
2022-11-07T00:45:29.004Z,99.86
2022-11-07T00:46:29.026Z,99.96
2022-11-07T00:47:29.005Z,99.76
2022-11-07T00:48:28.992Z,99.96
2022-11-07T00:49:28.969Z,99.96
2022-11-07T00:50:28.961Z,99.65
2022-11-07T00:51:28.952Z,99.99
2022-11-07T00:52:28.939Z,99.76
2022-11-07T00:53:28.931Z,99.86
2022-11-07T00:54:28.925Z,99.34
2022-11-07T00:55:28.908Z,99.96
2022-11-07T00:56:28.891Z,99.96
2022-11-07T00:57:28.892Z,99.55
2022-11-07T00:58:28.889Z,99.96
2022-11-07T00:59:28.857Z,99.86
2022-11-07T01:00:28.840Z,99.99
2022-11-07T01:01:29.006Z,99.99
2022-11-07T01:02:28.985Z,99.76
2022-11-07T01:03:28.847Z,99.99
2022-11-07T01:04:28.818Z,99.99
2022-11-07T01:05:28.810Z,99.99
2022-11-07T01:06:28.790Z,99.76
2022-11-07T01:07:28.777Z,99.99
2022-11-07T01:08:28.807Z,99.76
2022-11-07T01:09:28.797Z,99.99
2022-11-07T01:10:28.775Z,99.99
2022-11-07T01:11:28.736Z,99.99
2022-11-07T01:12:28.754Z,99.99
2022-11-07T01:13:28.719Z,99.99
2022-11-07T01:14:28.699Z,99.90
2022-11-07T01:15:28.727Z,99.76
2022-11-07T01:16:28.677Z,99.76
2022-11-07T01:17:28.684Z,99.99
2022-11-07T01:18:28.665Z,99.99
2022-11-07T01:19:28.661Z,99.99
2022-11-07T01:20:28.640Z,99.86
2022-11-07T01:21:28.641Z,99.99
2022-11-07T01:22:28.616Z,99.99
2022-11-07T01:23:28.616Z,99.99
2022-11-07T01:24:28.589Z,99.99
2022-11-07T01:25:28.587Z,99.99
2022-11-07T01:26:28.574Z,99.96
2022-11-07T01:27:28.558Z,99.99
2022-11-07T01:28:28.586Z,99.99
2022-11-07T01:29:28.536Z,99.99
2022-11-07T01:30:28.542Z,99.99
2022-11-07T01:31:28.523Z,99.55
2022-11-07T01:32:28.509Z,99.96
2022-11-07T01:33:28.499Z,99.44
2022-11-07T01:34:28.526Z,99.99
2022-11-07T01:35:28.494Z,99.86
2022-11-07T01:36:28.491Z,99.99
2022-11-07T01:37:28.445Z,99.99
2022-11-07T01:38:28.438Z,99.86
2022-11-07T01:39:28.439Z,99.99
2022-11-07T01:40:28.419Z,99.96
2022-11-07T01:41:28.413Z,99.96
2022-11-07T01:42:28.421Z,99.96
2022-11-07T01:43:28.393Z,99.99
2022-11-07T01:44:28.387Z,99.80
2022-11-07T01:45:28.374Z,99.99
2022-11-07T01:46:28.357Z,99.99
2022-11-07T01:47:28.351Z,99.99
2022-11-07T01:48:28.337Z,99.90
2022-11-07T01:49:28.334Z,99.99
2022-11-07T01:50:28.348Z,99.99
2022-11-07T01:51:28.316Z,99.99
2022-11-07T01:52:28.292Z,99.99
2022-11-07T01:53:28.284Z,99.80
2022-11-07T01:54:28.267Z,99.99
2022-11-07T01:55:28.268Z,99.99
2022-11-07T01:56:28.301Z,99.99
2022-11-07T01:57:28.245Z,99.99
2022-11-07T01:58:28.241Z,99.99
2022-11-07T01:59:28.220Z,99.99
2022-11-07T02:00:28.228Z,99.99
2022-11-07T02:01:28.338Z,99.99
2022-11-07T02:02:28.376Z,99.99
2022-11-07T02:03:28.198Z,99.86
2022-11-07T02:04:28.172Z,99.99
2022-11-07T02:05:28.153Z,99.99
2022-11-07T02:06:28.160Z,99.99
2022-11-07T02:07:28.255Z,99.90
2022-11-07T02:08:28.129Z,99.90
2022-11-07T02:09:28.110Z,99.99
2022-11-07T02:10:28.102Z,99.99
2022-11-07T02:11:28.144Z,99.99
2022-11-07T02:12:28.091Z,99.99
2022-11-07T02:13:28.082Z,99.99
2022-11-07T02:14:28.079Z,99.99
2022-11-07T02:15:28.054Z,99.99
2022-11-07T02:16:28.054Z,99.99
2022-11-07T02:17:28.048Z,99.99
2022-11-07T02:18:28.046Z,99.99
2022-11-07T02:19:28.010Z,99.99
2022-11-07T02:20:27.994Z,99.99
2022-11-07T02:21:27.995Z,99.99
2022-11-07T02:22:27.978Z,99.99
2022-11-07T02:23:28.092Z,99.99
2022-11-07T02:24:27.961Z,99.99
2022-11-07T02:25:27.952Z,99.99
2022-11-07T02:26:27.944Z,99.99
2022-11-07T02:27:27.922Z,99.99
2022-11-07T02:28:27.935Z,99.99
2022-11-07T02:29:27.910Z,99.99
2022-11-07T02:30:27.897Z,99.99
2022-11-07T02:31:27.901Z,99.99
2022-11-07T02:32:27.874Z,99.99
2022-11-07T02:33:27.871Z,99.99
2022-11-07T02:34:27.892Z,99.99
2022-11-07T02:35:27.842Z,99.99
2022-11-07T02:36:27.833Z,99.99
2022-11-07T02:37:27.811Z,99.99
2022-11-07T02:38:27.849Z,99.99
2022-11-07T02:39:27.823Z,99.99
2022-11-07T02:40:27.786Z,99.96
2022-11-07T02:41:27.784Z,99.99
2022-11-07T02:42:27.764Z,99.99
2022-11-07T02:43:27.749Z,99.81
2022-11-07T02:44:27.778Z,99.99
2022-11-07T02:45:27.742Z,99.99
2022-11-07T02:46:27.733Z,99.81
2022-11-07T02:47:27.719Z,99.91
2022-11-07T02:48:27.726Z,99.99
2022-11-07T02:49:27.696Z,99.91
2022-11-07T02:50:27.682Z,99.76
2022-11-07T02:51:27.671Z,99.55
2022-11-07T02:52:27.653Z,99.76
2022-11-07T02:53:27.658Z,99.76
2022-11-07T02:54:27.643Z,99.76
2022-11-07T02:55:27.671Z,99.55
2022-11-07T02:56:27.623Z,99.65
2022-11-07T02:57:27.603Z,99.65
2022-11-07T02:58:27.590Z,99.24
2022-11-07T02:59:27.584Z,99.76
2022-11-07T03:00:27.583Z,99.86
2022-11-07T03:01:27.665Z,99.76
2022-11-07T03:02:27.718Z,99.65
2022-11-07T03:03:27.548Z,99.86
2022-11-07T03:04:27.535Z,99.86
2022-11-07T03:05:27.539Z,99.86
2022-11-07T03:06:27.513Z,99.86
2022-11-07T03:07:27.517Z,99.99
2022-11-07T03:08:27.497Z,99.99
2022-11-07T03:09:27.481Z,99.99
2022-11-07T03:10:27.469Z,99.99
2022-11-07T03:11:27.478Z,99.99
2022-11-07T03:12:27.460Z,99.99
2022-11-07T03:13:27.432Z,99.99
2022-11-07T03:14:27.443Z,99.60
2022-11-07T03:15:27.411Z,99.87
2022-11-07T03:16:27.409Z,99.99
2022-11-07T03:17:27.405Z,99.66
2022-11-07T03:18:27.386Z,99.99
2022-11-07T03:19:27.383Z,99.66
2022-11-07T03:20:27.370Z,99.46
2022-11-07T03:21:27.374Z,99.46
2022-11-07T03:22:27.359Z,99.66
2022-11-07T03:23:27.342Z,99.82
2022-11-07T03:24:27.325Z,99.31
2022-11-07T03:25:27.321Z,99.10
2022-11-07T03:26:27.299Z,99.00
2022-11-07T03:27:27.340Z,98.69
2022-11-07T03:28:27.333Z,99.00
2022-11-07T03:29:27.278Z,98.90
2022-11-07T03:30:27.275Z,98.90
2022-11-07T03:31:27.268Z,98.49
2022-11-07T03:32:27.242Z,98.18
2022-11-07T03:33:27.235Z,98.59
2022-11-07T03:34:27.221Z,98.13
2022-11-07T03:35:27.201Z,98.07
2022-11-07T03:36:27.194Z,97.72
2022-11-07T03:37:27.198Z,98.24
2022-11-07T03:38:27.179Z,98.13
2022-11-07T03:39:27.173Z,98.24
2022-11-07T03:40:27.152Z,98.24
2022-11-07T03:41:27.145Z,98.13
2022-11-07T03:42:27.132Z,97.92
2022-11-07T03:43:27.141Z,97.72
2022-11-07T03:44:27.134Z,97.52
2022-11-07T03:45:27.101Z,97.62
2022-11-07T03:46:27.105Z,97.52
2022-11-07T03:47:27.087Z,97.31
2022-11-07T03:48:27.074Z,98.03
2022-11-07T03:49:27.063Z,97.41
2022-11-07T03:50:27.056Z,97.31
2022-11-07T03:51:27.035Z,97.41
2022-11-07T03:52:35.578Z,97.62
2022-11-07T03:53:34.574Z,97.72
2022-11-07T03:54:34.547Z,97.52
2022-11-07T03:55:35.834Z,97.62
2022-11-07T03:56:35.526Z,97.66
2022-11-07T03:57:26.975Z,97.97
2022-11-07T03:58:26.983Z,97.66
2022-11-07T03:59:26.985Z,97.25
2022-11-07T04:00:26.936Z,97.50
2022-11-07T04:01:27.079Z,97.40
2022-11-07T04:02:27.054Z,98.43
2022-11-07T04:03:26.909Z,98.33
2022-11-07T04:04:26.898Z,98.63
2022-11-07T04:05:26.908Z,98.12
2022-11-07T04:06:26.882Z,98.63
2022-11-07T04:07:26.908Z,98.74
2022-11-07T04:08:26.878Z,98.63
2022-11-07T04:09:26.867Z,99.05
2022-11-07T04:10:26.837Z,99.05
2022-11-07T04:11:26.828Z,98.94
2022-11-07T04:12:26.826Z,98.90
2022-11-07T04:13:26.824Z,98.79
2022-11-07T04:14:26.797Z,98.74
2022-11-07T04:15:26.810Z,98.49
2022-11-07T04:16:26.785Z,98.69
2022-11-07T04:17:26.848Z,98.79
2022-11-07T04:18:26.752Z,98.38
2022-11-07T04:19:26.738Z,98.59
2022-11-07T04:20:26.737Z,98.90
2022-11-07T04:21:26.716Z,98.03
2022-11-07T04:22:26.714Z,98.24
2022-11-07T04:23:26.727Z,98.44
2022-11-07T04:24:26.695Z,98.33
2022-11-07T04:25:26.672Z,98.54
2022-11-07T04:26:26.680Z,97.92
2022-11-07T04:27:26.661Z,97.72
2022-11-07T04:28:26.653Z,97.31
2022-11-07T04:29:26.650Z,97.47
2022-11-07T04:30:26.632Z,97.27
2022-11-07T04:31:26.628Z,97.27
2022-11-07T04:32:26.629Z,97.37
2022-11-07T04:33:26.617Z,97.06
2022-11-07T04:34:26.592Z,97.06
2022-11-07T04:35:26.580Z,96.85
2022-11-07T04:36:26.576Z,96.75
2022-11-07T04:37:26.546Z,95.93
2022-11-07T04:38:26.557Z,96.14
2022-11-07T04:39:26.550Z,96.03
2022-11-07T04:40:26.529Z,96.03
2022-11-07T04:41:26.517Z,96.34
2022-11-07T04:42:26.507Z,95.31
2022-11-07T04:43:26.498Z,96.34
2022-11-07T04:44:26.507Z,95.78
2022-11-07T04:45:26.480Z,95.37
2022-11-07T04:46:26.462Z,95.47
2022-11-07T04:47:26.472Z,95.72
2022-11-07T04:48:26.464Z,95.78
2022-11-07T04:49:26.437Z,95.98
2022-11-07T04:50:26.421Z,95.57
2022-11-07T04:51:26.415Z,95.47
2022-11-07T04:52:26.395Z,95.57
2022-11-07T04:53:26.394Z,95.27
2022-11-07T04:54:26.395Z,95.06
2022-11-07T04:55:26.392Z,95.27
2022-11-07T04:56:29.415Z,95.06
2022-11-07T04:57:27.339Z,94.96
2022-11-07T04:58:26.327Z,94.96
2022-11-07T04:59:26.339Z,94.85
2022-11-07T05:00:26.320Z,94.85
2022-11-07T05:01:26.380Z,94.96
2022-11-07T05:02:26.494Z,95.06
2022-11-07T05:03:26.289Z,94.96
2022-11-07T05:04:26.276Z,94.96
2022-11-07T05:05:26.254Z,95.06
2022-11-07T05:06:26.249Z,95.17
2022-11-07T05:07:26.252Z,95.17
2022-11-07T05:08:26.222Z,94.55
2022-11-07T05:09:26.208Z,94.76
2022-11-07T05:10:26.204Z,94.45
2022-11-07T05:11:26.225Z,94.76
2022-11-07T05:12:26.195Z,94.45
2022-11-07T05:13:26.167Z,94.55
2022-11-07T05:14:26.182Z,94.34
2022-11-07T05:15:26.162Z,94.34
2022-11-07T05:16:26.137Z,94.24
2022-11-07T05:17:28.052Z,94.34
2022-11-07T05:18:26.148Z,94.65
2022-11-07T05:19:26.129Z,94.45
2022-11-07T05:20:26.110Z,94.34
2022-11-07T05:21:26.098Z,94.14
2022-11-07T05:22:26.078Z,94.65
2022-11-07T05:23:26.079Z,94.45
2022-11-07T05:24:26.058Z,95.27
2022-11-07T05:25:26.063Z,94.45
2022-11-07T05:26:26.039Z,94.65
2022-11-07T05:27:26.030Z,94.45
2022-11-07T05:28:35.351Z,94.34
2022-11-07T05:29:27.003Z,94.34
2022-11-07T05:30:26.004Z,94.45
2022-11-07T05:31:26.000Z,95.27
2022-11-07T05:32:25.984Z,94.65
2022-11-07T05:33:25.984Z,94.45
2022-11-07T05:34:26.021Z,94.45
2022-11-07T05:35:25.958Z,94.59
2022-11-07T05:36:25.937Z,94.55
2022-11-07T05:37:25.933Z,94.24
2022-11-07T05:38:25.982Z,94.24
2022-11-07T05:39:25.916Z,94.55
2022-11-07T05:40:25.902Z,94.45
2022-11-07T05:41:25.922Z,94.55
2022-11-07T05:42:25.877Z,94.04
2022-11-07T05:43:25.852Z,94.65
2022-11-07T05:44:25.883Z,94.34
2022-11-07T05:45:25.899Z,94.24
2022-11-07T05:46:25.820Z,93.93
2022-11-07T05:47:25.861Z,93.89
2022-11-07T05:48:25.818Z,93.83
2022-11-07T05:49:25.833Z,93.89
2022-11-07T05:50:25.813Z,93.38
2022-11-07T05:51:25.784Z,93.63
2022-11-07T05:52:25.776Z,93.52
2022-11-07T05:53:25.829Z,93.99
2022-11-07T05:54:25.771Z,93.68
2022-11-07T05:55:25.740Z,93.52
2022-11-07T05:56:25.730Z,93.48
2022-11-07T05:57:25.718Z,93.17
2022-11-07T05:58:25.699Z,93.79
2022-11-07T05:59:25.691Z,93.17
2022-11-07T06:00:25.680Z,93.48
2022-11-07T06:01:25.747Z,93.68
2022-11-07T06:02:25.861Z,93.59
2022-11-07T06:03:25.695Z,93.38
2022-11-07T06:04:25.667Z,93.38
2022-11-07T06:05:25.626Z,92.82
2022-11-07T06:06:25.624Z,93.68
2022-11-07T06:07:25.628Z,92.97
2022-11-07T06:08:25.586Z,93.27
2022-11-07T06:09:25.589Z,93.54
2022-11-07T06:10:25.605Z,93.27
2022-11-07T06:11:25.596Z,92.97
2022-11-07T06:12:25.552Z,92.72
2022-11-07T06:13:25.536Z,93.02
2022-11-07T06:14:25.533Z,92.76
2022-11-07T06:15:25.533Z,92.97
2022-11-07T06:16:25.503Z,92.72
2022-11-07T06:17:25.538Z,92.93
2022-11-07T06:18:25.487Z,92.82
2022-11-07T06:19:25.486Z,92.72
2022-11-07T06:20:25.482Z,93.02
2022-11-07T06:21:25.477Z,92.82
2022-11-07T06:22:25.450Z,92.72
2022-11-07T06:23:25.586Z,92.51
2022-11-07T06:24:25.437Z,92.41
2022-11-07T06:25:25.406Z,92.82
2022-11-07T06:26:25.406Z,92.72
2022-11-07T06:27:25.454Z,92.31
2022-11-07T06:28:25.408Z,92.41
2022-11-07T06:29:25.371Z,92.41
2022-11-07T06:30:25.369Z,92.31
2022-11-07T06:31:25.356Z,92.72
2022-11-07T06:32:25.365Z,92.31
2022-11-07T06:33:25.338Z,92.41
2022-11-07T06:34:25.325Z,92.21
2022-11-07T06:35:25.341Z,92.72
2022-11-07T06:36:25.313Z,92.31
2022-11-07T06:37:25.300Z,92.82
2022-11-07T06:38:25.297Z,92.41
2022-11-07T06:39:25.316Z,92.72
2022-11-07T06:40:25.258Z,92.51
2022-11-07T06:41:25.247Z,92.72
2022-11-07T06:42:25.235Z,92.41
2022-11-07T06:43:26.780Z,92.51
2022-11-07T06:44:25.222Z,92.21
2022-11-07T06:45:25.205Z,92.82
2022-11-07T06:46:25.191Z,92.82
2022-11-07T06:47:25.180Z,92.82
2022-11-07T06:48:25.196Z,92.10
2022-11-07T06:49:25.172Z,92.21
2022-11-07T06:50:25.151Z,92.41
2022-11-07T06:51:25.150Z,92.21
2022-11-07T06:52:25.143Z,92.31
2022-11-07T06:53:25.118Z,92.31
2022-11-07T06:54:25.157Z,92.82
2022-11-07T06:55:25.204Z,92.93
2022-11-07T06:56:25.091Z,92.41
2022-11-07T06:57:25.099Z,92.82
2022-11-07T06:58:25.085Z,93.02
2022-11-07T06:59:25.063Z,92.82
2022-11-07T07:00:25.065Z,92.82
2022-11-07T07:01:25.162Z,92.51
2022-11-07T07:02:56.425Z,92.82
2022-11-07T07:03:26.039Z,93.13
2022-11-07T07:04:25.001Z,92.72
2022-11-07T07:05:25.004Z,92.72
2022-11-07T07:06:24.993Z,92.68
2022-11-07T07:07:24.991Z,92.72
2022-11-07T07:08:24.959Z,92.78
2022-11-07T07:09:24.960Z,92.78
2022-11-07T07:10:24.995Z,92.41
2022-11-07T07:11:24.968Z,92.88
2022-11-07T07:12:24.952Z,92.27
2022-11-07T07:13:24.924Z,92.57
2022-11-07T07:14:24.895Z,92.88
2022-11-07T07:15:24.916Z,92.47
2022-11-07T07:16:24.888Z,92.63
2022-11-07T07:17:24.878Z,92.22
2022-11-07T07:18:24.860Z,92.22
2022-11-07T07:19:24.847Z,92.22
2022-11-07T07:20:24.889Z,91.91
2022-11-07T07:21:24.832Z,91.91
2022-11-07T07:22:24.833Z,92.02
2022-11-07T07:23:24.896Z,91.71
2022-11-07T07:24:24.824Z,91.75
2022-11-07T07:25:24.785Z,91.75
2022-11-07T07:26:24.776Z,92.06
2022-11-07T07:27:24.894Z,92.27
2022-11-07T07:28:24.764Z,92.16
2022-11-07T07:29:24.763Z,92.41
2022-11-07T07:30:24.737Z,93.02
2022-11-07T07:31:24.725Z,92.82
2022-11-07T07:32:24.741Z,92.98
2022-11-07T07:33:24.722Z,92.72
2022-11-07T07:34:24.704Z,92.78
2022-11-07T07:35:24.697Z,92.88
2022-11-07T07:36:24.681Z,92.57
2022-11-07T07:37:24.687Z,92.68
2022-11-07T07:38:24.652Z,92.78
2022-11-07T07:39:24.637Z,92.98
2022-11-07T07:40:24.675Z,92.27
2022-11-07T07:41:24.617Z,92.32
2022-11-07T07:42:24.606Z,92.32
2022-11-07T07:43:24.729Z,92.32
2022-11-07T07:44:24.587Z,92.22
2022-11-07T07:45:24.595Z,91.82
2022-11-07T07:46:24.565Z,92.22
2022-11-07T07:47:24.561Z,92.28
2022-11-07T07:48:24.561Z,91.82
2022-11-07T07:49:24.542Z,92.18
2022-11-07T07:50:24.520Z,92.08
2022-11-07T07:51:24.533Z,91.77
2022-11-07T07:52:24.509Z,91.97
2022-11-07T07:53:24.507Z,91.97
2022-11-07T07:54:24.496Z,92.08
2022-11-07T07:55:24.486Z,91.56
2022-11-07T07:56:24.464Z,91.63
2022-11-07T07:57:24.497Z,91.31
2022-11-07T07:58:24.456Z,91.31
2022-11-07T07:59:24.553Z,90.91
2022-11-07T08:00:24.450Z,90.91
2022-11-07T08:01:24.741Z,91.22
2022-11-07T08:02:24.492Z,91.31
2022-11-07T08:03:24.395Z,90.60
2022-11-07T08:04:24.403Z,90.25
2022-11-07T08:05:24.374Z,90.70
2022-11-07T08:06:24.365Z,90.97
2022-11-07T08:07:24.374Z,90.56
2022-11-07T08:08:24.330Z,90.39
2022-11-07T08:09:24.333Z,90.30
2022-11-07T08:11:25.318Z,90.81
2022-11-07T08:12:24.315Z,90.70
2022-11-07T08:13:24.279Z,91.22
2022-11-07T08:14:24.318Z,90.86
2022-11-07T08:15:24.383Z,90.81
2022-11-07T08:16:24.252Z,90.66
2022-11-07T08:17:24.242Z,90.66
2022-11-07T08:18:24.246Z,90.11
2022-11-07T08:19:24.218Z,90.47
2022-11-07T08:20:24.251Z,90.06
2022-11-07T08:21:24.194Z,89.61
2022-11-07T08:22:24.306Z,88.70
2022-11-07T08:23:24.445Z,88.85
2022-11-07T08:24:24.173Z,88.35
2022-11-07T08:25:32.896Z,88.41
2022-11-07T08:26:24.172Z,87.59
2022-11-07T08:27:24.203Z,88.17
2022-11-07T08:28:24.270Z,87.08
2022-11-07T08:29:24.122Z,87.24
2022-11-07T08:30:24.131Z,86.63
2022-11-07T08:31:24.197Z,86.02
2022-11-07T08:32:24.159Z,86.83
2022-11-07T08:33:24.119Z,86.83
2022-11-07T08:34:24.072Z,86.63
2022-11-07T08:35:24.099Z,86.53
2022-11-07T08:36:24.072Z,86.53
2022-11-07T08:37:24.057Z,86.63
2022-11-07T08:38:31.700Z,87.24
2022-11-07T08:39:24.098Z,87.35
2022-11-07T08:40:24.054Z,87.14
2022-11-07T08:41:31.567Z,86.73
2022-11-07T08:42:24.073Z,86.43
2022-11-07T08:43:24.009Z,86.63
2022-11-07T08:44:23.985Z,86.59
2022-11-07T08:45:31.540Z,86.29
2022-11-07T08:46:23.963Z,86.80
2022-11-07T08:47:23.983Z,86.90
2022-11-07T08:48:24.081Z,86.59
2022-11-07T08:49:23.961Z,86.59
2022-11-07T08:50:23.899Z,86.55
2022-11-07T08:51:23.893Z,86.15
2022-11-07T08:52:23.880Z,85.74
2022-11-07T08:53:33.512Z,86.39
2022-11-07T08:54:23.858Z,86.15
2022-11-07T08:55:23.933Z,86.59
2022-11-07T08:56:23.858Z,86.69
2022-11-07T08:57:23.850Z,86.49
2022-11-07T08:58:29.721Z,86.49
2022-11-07T08:59:24.821Z,86.69
2022-11-07T09:00:23.872Z,86.59
2022-11-07T09:01:23.939Z,87.24
2022-11-07T09:03:17.838Z,87.10
2022-11-07T09:03:43.953Z,87.14
2022-11-07T09:04:24.794Z,87.20
2022-11-07T09:05:23.729Z,87.20
2022-11-07T09:06:23.738Z,86.73
2022-11-07T09:07:23.770Z,87.30
2022-11-07T09:08:23.719Z,87.76
2022-11-07T09:09:23.707Z,86.73
2022-11-07T09:10:23.811Z,86.83
2022-11-07T09:11:23.689Z,86.90
2022-11-07T09:12:31.249Z,87.61
2022-11-07T09:13:23.717Z,87.10
2022-11-07T09:14:31.234Z,86.55
2022-11-07T09:15:23.706Z,85.63
2022-11-07T09:16:23.682Z,86.24
2022-11-07T09:17:23.621Z,85.80
2022-11-07T09:18:23.606Z,84.88
2022-11-07T09:19:23.605Z,84.94
2022-11-07T09:20:23.627Z,85.14
2022-11-07T09:21:23.593Z,85.05
2022-11-07T09:22:23.560Z,84.70
2022-11-07T09:23:23.553Z,84.09
2022-11-07T09:24:23.555Z,83.98
2022-11-07T09:25:23.579Z,84.43
2022-11-07T09:26:23.526Z,84.39
2022-11-07T09:27:23.515Z,84.43
2022-11-07T09:28:23.541Z,83.72
2022-11-07T09:29:23.551Z,84.19
2022-11-07T09:30:23.477Z,84.09
2022-11-07T09:31:23.504Z,84.09
2022-11-07T09:32:43.810Z,84.59
2022-11-07T09:33:24.444Z,84.50
2022-11-07T09:34:23.430Z,84.53
2022-11-07T09:35:23.461Z,84.23
2022-11-07T09:36:23.406Z,84.33
2022-11-07T09:37:23.388Z,84.64
2022-11-07T09:38:23.421Z,84.53
2022-11-07T09:39:23.405Z,84.33
2022-11-07T09:40:23.391Z,84.64
2022-11-07T09:41:23.349Z,84.43
2022-11-07T09:42:23.345Z,84.74
2022-11-07T09:43:23.338Z,84.74
2022-11-07T09:44:26.678Z,85.05
2022-11-07T09:45:24.304Z,85.05
2022-11-07T09:46:23.299Z,85.35
2022-11-07T09:47:23.329Z,85.45
2022-11-07T09:48:23.284Z,85.61
2022-11-07T09:49:23.306Z,85.21
2022-11-07T09:50:23.273Z,84.50
2022-11-07T09:51:23.354Z,84.50
2022-11-07T09:52:23.225Z,83.95
2022-11-07T09:53:23.228Z,84.45
2022-11-07T09:54:23.259Z,84.45
2022-11-07T09:55:23.204Z,84.09
2022-11-07T09:56:23.193Z,84.50
2022-11-07T09:57:23.184Z,84.15
2022-11-07T09:58:23.155Z,84.50
2022-11-07T09:59:23.182Z,84.25
2022-11-07T10:00:23.205Z,83.95
2022-11-07T10:01:23.259Z,84.45
2022-11-07T10:02:23.164Z,84.45
2022-11-07T10:03:23.150Z,84.42
2022-11-07T10:04:25.351Z,84.01
2022-11-07T10:05:23.287Z,83.91
2022-11-07T10:06:24.347Z,84.11
2022-11-07T10:07:23.092Z,83.70
2022-11-07T10:08:23.068Z,83.20
2022-11-07T10:09:23.042Z,83.09
2022-11-07T10:10:23.035Z,83.40
2022-11-07T10:11:23.089Z,83.20
2022-11-07T10:12:23.039Z,83.29
2022-11-07T10:13:23.006Z,83.60
2022-11-07T10:14:22.992Z,82.99
2022-11-07T10:15:22.987Z,82.99
2022-11-07T10:16:22.972Z,82.75
2022-11-07T10:17:22.964Z,82.59
2022-11-07T10:18:22.996Z,82.54
2022-11-07T10:19:22.949Z,82.45
2022-11-07T10:20:25.023Z,82.34
2022-11-07T10:21:39.200Z,82.45
2022-11-07T10:22:23.949Z,82.04
2022-11-07T10:23:22.916Z,82.95
2022-11-07T10:24:22.880Z,83.36
2022-11-07T10:25:22.866Z,82.85
2022-11-07T10:26:22.857Z,82.85
2022-11-07T10:27:22.858Z,82.71
2022-11-07T10:28:22.911Z,82.51
2022-11-07T10:29:22.819Z,82.51
2022-11-07T10:30:22.819Z,82.20
2022-11-07T10:31:22.819Z,82.10
2022-11-07T10:32:22.795Z,82.31
2022-11-07T10:33:22.815Z,82.00
2022-11-07T10:34:22.784Z,81.70
2022-11-07T10:35:22.766Z,81.79
2022-11-07T10:36:22.758Z,81.59
2022-11-07T10:37:22.745Z,81.49
2022-11-07T10:38:22.745Z,82.20
2022-11-07T10:39:22.748Z,82.57
2022-11-07T10:40:22.708Z,81.86
2022-11-07T10:41:22.691Z,81.49
2022-11-07T10:42:22.694Z,81.09
2022-11-07T10:43:22.754Z,81.29
2022-11-07T10:44:22.664Z,81.45
2022-11-07T10:45:22.670Z,81.19
2022-11-07T10:46:22.670Z,81.56
2022-11-07T10:47:22.655Z,81.66
2022-11-07T10:48:22.619Z,81.45
2022-11-07T10:49:22.653Z,81.45
2022-11-07T10:50:22.599Z,81.35
2022-11-07T10:51:22.610Z,81.86
2022-11-07T10:52:22.580Z,81.01
2022-11-07T10:53:22.596Z,81.11
2022-11-07T10:54:22.557Z,80.84
2022-11-07T10:55:22.569Z,81.11
2022-11-07T10:56:22.548Z,81.72
2022-11-07T10:57:22.516Z,81.11
2022-11-07T10:58:22.524Z,80.60
2022-11-07T10:59:22.517Z,81.01
2022-11-07T11:00:22.661Z,80.91
2022-11-07T11:01:22.783Z,80.91
2022-11-07T11:02:22.634Z,80.80
2022-11-07T11:03:22.874Z,80.40
2022-11-07T11:04:22.448Z,81.01
2022-11-07T11:05:22.455Z,80.71
2022-11-07T11:06:22.481Z,80.30
2022-11-07T11:07:28.077Z,80.91
2022-11-07T11:08:23.406Z,81.21
2022-11-07T11:09:22.398Z,80.91
2022-11-07T11:10:22.461Z,80.80
2022-11-07T11:11:22.398Z,80.80
2022-11-07T11:12:22.383Z,80.50
2022-11-07T11:13:22.372Z,80.50
2022-11-07T11:14:22.352Z,80.91
2022-11-07T11:15:22.349Z,79.79
2022-11-07T11:16:22.338Z,79.79
2022-11-07T11:17:22.410Z,80.40
2022-11-07T11:18:22.311Z,80.30
2022-11-07T11:19:22.306Z,79.90
2022-11-07T11:20:22.281Z,79.90
2022-11-07T11:21:22.279Z,80.91
2022-11-07T11:22:22.316Z,80.80
2022-11-07T11:23:22.306Z,80.91
2022-11-07T11:24:22.242Z,80.91
2022-11-07T11:25:22.230Z,81.21
2022-11-07T11:26:22.223Z,80.80
2022-11-07T11:27:22.219Z,80.97
2022-11-07T11:28:22.218Z,80.26
2022-11-07T11:29:22.228Z,81.07
2022-11-07T11:30:22.181Z,79.45
2022-11-07T11:31:22.183Z,79.21
2022-11-07T11:32:22.159Z,79.51
2022-11-07T11:33:22.141Z,78.40
2022-11-07T11:34:22.156Z,79.41
2022-11-07T11:35:22.144Z,79.27
2022-11-07T11:36:22.124Z,79.38
2022-11-07T11:37:22.104Z,79.38
2022-11-07T11:38:22.095Z,78.50
2022-11-07T11:39:22.094Z,78.26
2022-11-07T11:40:22.074Z,77.89
2022-11-07T11:41:22.059Z,78.30
2022-11-07T11:42:22.083Z,78.09
2022-11-07T11:43:22.075Z,78.30
2022-11-07T11:44:22.067Z,78.09
2022-11-07T11:45:22.018Z,78.80
2022-11-07T11:46:22.012Z,78.09
2022-11-07T11:47:22.017Z,79.21
2022-11-07T11:48:21.987Z,79.31
2022-11-07T11:49:21.991Z,79.41
2022-11-07T11:50:21.963Z,79.41
2022-11-07T11:51:21.978Z,79.82
2022-11-07T11:52:21.938Z,79.82
2022-11-07T11:53:21.937Z,80.02
2022-11-07T11:54:21.924Z,79.65
2022-11-07T11:55:21.942Z,78.64
2022-11-07T11:56:21.911Z,80.83
2022-11-07T11:57:21.894Z,79.65
2022-11-07T11:58:21.915Z,79.31
2022-11-07T11:59:21.913Z,79.72
2022-11-07T12:00:21.872Z,79.35
2022-11-07T12:01:22.146Z,79.21
2022-11-07T12:02:22.031Z,78.80
2022-11-07T12:03:21.848Z,79.21
2022-11-07T12:04:21.820Z,79.21
2022-11-07T12:05:21.810Z,78.97
2022-11-07T12:06:21.794Z,79.68
2022-11-07T12:07:21.820Z,79.31
2022-11-07T12:08:21.782Z,78.40
2022-11-07T12:09:21.773Z,80.02
2022-11-07T12:10:21.754Z,80.16
2022-11-07T12:11:21.739Z,80.46
2022-11-07T12:12:21.733Z,80.93
2022-11-07T12:13:21.750Z,80.87
2022-11-07T12:14:21.707Z,79.65
2022-11-07T12:15:21.718Z,80.46
2022-11-07T12:16:21.698Z,79.31
2022-11-07T12:17:21.681Z,79.51
2022-11-07T12:18:21.670Z,79.82
2022-11-07T12:19:21.705Z,78.30
2022-11-07T12:20:21.651Z,78.33
2022-11-07T12:21:21.644Z,79.04
2022-11-07T12:22:21.628Z,79.25
2022-11-07T12:23:21.617Z,79.45
2022-11-07T12:24:21.603Z,79.25
2022-11-07T12:25:21.622Z,79.75
2022-11-07T12:26:21.589Z,80.19
2022-11-07T12:27:26.705Z,80.87
2022-11-07T12:28:22.561Z,80.91
2022-11-07T12:29:21.553Z,81.01
2022-11-07T12:30:21.549Z,80.50
2022-11-07T12:31:21.580Z,81.11
2022-11-07T12:32:21.543Z,80.06
2022-11-07T12:33:21.515Z,80.80
2022-11-07T12:34:21.502Z,80.97
2022-11-07T12:35:21.495Z,80.97
2022-11-07T12:36:21.473Z,81.07
2022-11-07T12:37:21.496Z,80.26
2022-11-07T12:38:21.452Z,79.65
2022-11-07T12:39:21.450Z,80.16
2022-11-07T12:40:21.433Z,79.75
2022-11-07T12:41:21.439Z,78.74
2022-11-07T12:42:21.422Z,80.02
2022-11-07T12:43:21.426Z,80.06
2022-11-07T12:44:21.400Z,79.75
2022-11-07T12:45:21.380Z,79.85
2022-11-07T12:46:21.368Z,80.26
2022-11-07T12:47:21.393Z,80.32
2022-11-07T12:48:21.344Z,80.36
2022-11-07T12:49:21.360Z,80.53
2022-11-07T12:50:21.328Z,80.02
2022-11-07T12:51:21.321Z,80.63
2022-11-07T12:52:21.313Z,80.16
2022-11-07T12:53:21.316Z,79.65